sensor_id;sensor_type;location;lat;lon;timestamp;P1;durP1;ratioP1;P2;durP2;ratioP2
43819;SDS011;59678;52.476;6.046;2022-07-23T00:00:28;3.58;;;2.40;;
43819;SDS011;59678;52.476;6.046;2022-07-23T00:02:54;5.50;;;2.85;;
43819;SDS011;59678;52.476;6.046;2022-07-23T00:05:19;3.80;;;2.13;;
43819;SDS011;59678;52.476;6.046;2022-07-23T00:07:44;6.43;;;2.60;;
43819;SDS011;59678;52.476;6.046;2022-07-23T00:10:09;3.90;;;2.67;;
43819;SDS011;59678;52.476;6.046;2022-07-23T00:12:34;3.80;;;2.87;;
43819;SDS011;59678;52.476;6.046;2022-07-23T00:15:00;8.75;;;2.90;;
43819;SDS011;59678;52.476;6.046;2022-07-23T00:17:25;4.95;;;3.15;;
43819;SDS011;59678;52.476;6.046;2022-07-23T00:19:50;8.83;;;2.53;;
43819;SDS011;59678;52.476;6.046;2022-07-23T00:22:16;4.87;;;2.97;;
43819;SDS011;59678;52.476;6.046;2022-07-23T00:24:41;6.80;;;2.93;;
43819;SDS011;59678;52.476;6.046;2022-07-23T00:27:06;5.18;;;3.13;;
43819;SDS011;59678;52.476;6.046;2022-07-23T00:29:31;3.63;;;2.83;;
43819;SDS011;59678;52.476;6.046;2022-07-23T00:31:56;3.10;;;2.67;;
43819;SDS011;59678;52.476;6.046;2022-07-23T00:34:21;6.87;;;3.37;;
43819;SDS011;59678;52.476;6.046;2022-07-23T00:36:47;5.70;;;3.30;;
43819;SDS011;59678;52.476;6.046;2022-07-23T00:39:12;4.37;;;2.97;;
43819;SDS011;59678;52.476;6.046;2022-07-23T00:41:37;4.03;;;2.92;;
43819;SDS011;59678;52.476;6.046;2022-07-23T00:44:18;3.58;;;2.63;;
43819;SDS011;59678;52.476;6.046;2022-07-23T00:46:51;4.30;;;2.70;;
43819;SDS011;59678;52.476;6.046;2022-07-23T00:49:19;8.88;;;3.55;;
43819;SDS011;59678;52.476;6.046;2022-07-23T00:51:45;5.55;;;3.60;;
43819;SDS011;59678;52.476;6.046;2022-07-23T00:54:10;5.60;;;4.00;;
43819;SDS011;59678;52.476;6.046;2022-07-23T00:56:36;5.53;;;3.55;;
43819;SDS011;59678;52.476;6.046;2022-07-23T00:59:02;8.35;;;3.90;;
43819;SDS011;59678;52.476;6.046;2022-07-23T01:01:27;4.72;;;3.55;;
43819;SDS011;59678;52.476;6.046;2022-07-23T01:03:52;6.07;;;3.33;;
43819;SDS011;59678;52.476;6.046;2022-07-23T01:06:18;6.17;;;3.80;;
43819;SDS011;59678;52.476;6.046;2022-07-23T01:08:43;5.60;;;3.30;;
43819;SDS011;59678;52.476;6.046;2022-07-23T01:11:08;4.77;;;3.73;;
43819;SDS011;59678;52.476;6.046;2022-07-23T01:13:33;4.63;;;3.37;;
43819;SDS011;59678;52.476;6.046;2022-07-23T01:15:59;6.20;;;3.75;;
43819;SDS011;59678;52.476;6.046;2022-07-23T01:18:24;7.40;;;4.67;;
43819;SDS011;59678;52.476;6.046;2022-07-23T01:20:49;7.83;;;4.83;;
43819;SDS011;59678;52.476;6.046;2022-07-23T01:23:14;8.35;;;4.38;;
43819;SDS011;59678;52.476;6.046;2022-07-23T01:25:51;5.80;;;4.38;;
43819;SDS011;59678;52.476;6.046;2022-07-23T01:28:16;11.88;;;5.80;;
43819;SDS011;59678;52.476;6.046;2022-07-23T01:30:42;9.97;;;4.93;;
43819;SDS011;59678;52.476;6.046;2022-07-23T01:33:07;7.10;;;5.00;;
43819;SDS011;59678;52.476;6.046;2022-07-23T01:35:32;12.40;;;5.68;;
43819;SDS011;59678;52.476;6.046;2022-07-23T01:37:58;6.17;;;4.80;;
43819;SDS011;59678;52.476;6.046;2022-07-23T01:40:23;5.72;;;4.68;;
43819;SDS011;59678;52.476;6.046;2022-07-23T01:42:48;7.60;;;6.57;;
43819;SDS011;59678;52.476;6.046;2022-07-23T01:45:13;5.50;;;4.37;;
43819;SDS011;59678;52.476;6.046;2022-07-23T01:47:39;8.10;;;4.35;;
43819;SDS011;59678;52.476;6.046;2022-07-23T01:50:04;9.53;;;4.50;;
43819;SDS011;59678;52.476;6.046;2022-07-23T01:52:29;5.20;;;4.07;;
43819;SDS011;59678;52.476;6.046;2022-07-23T01:54:54;4.63;;;3.83;;
43819;SDS011;59678;52.476;6.046;2022-07-23T01:57:20;5.33;;;4.47;;
43819;SDS011;59678;52.476;6.046;2022-07-23T01:59:45;5.33;;;4.47;;
43819;SDS011;59678;52.476;6.046;2022-07-23T02:02:10;8.15;;;5.85;;
43819;SDS011;59678;52.476;6.046;2022-07-23T02:04:35;7.38;;;4.80;;
43819;SDS011;59678;52.476;6.046;2022-07-23T02:07:01;7.72;;;4.53;;
43819;SDS011;59678;52.476;6.046;2022-07-23T02:09:27;6.63;;;5.30;;
43819;SDS011;59678;52.476;6.046;2022-07-23T02:11:52;7.68;;;5.80;;
43819;SDS011;59678;52.476;6.046;2022-07-23T02:14:17;8.30;;;5.63;;
43819;SDS011;59678;52.476;6.046;2022-07-23T02:16:42;6.38;;;5.72;;
43819;SDS011;59678;52.476;6.046;2022-07-23T02:19:08;7.93;;;5.60;;
43819;SDS011;59678;52.476;6.046;2022-07-23T02:21:33;8.67;;;4.43;;
43819;SDS011;59678;52.476;6.046;2022-07-23T02:23:58;7.17;;;5.20;;
43819;SDS011;59678;52.476;6.046;2022-07-23T02:26:23;6.70;;;5.77;;
43819;SDS011;59678;52.476;6.046;2022-07-23T02:28:48;7.80;;;6.50;;
43819;SDS011;59678;52.476;6.046;2022-07-23T02:31:13;7.40;;;6.43;;
43819;SDS011;59678;52.476;6.046;2022-07-23T02:33:39;8.67;;;6.93;;
43819;SDS011;59678;52.476;6.046;2022-07-23T02:36:04;5.17;;;4.67;;
43819;SDS011;59678;52.476;6.046;2022-07-23T02:38:29;5.32;;;4.50;;
43819;SDS011;59678;52.476;6.046;2022-07-23T02:40:55;5.37;;;4.70;;
43819;SDS011;59678;52.476;6.046;2022-07-23T02:43:20;4.93;;;4.38;;
43819;SDS011;59678;52.476;6.046;2022-07-23T02:45:45;7.20;;;4.50;;
43819;SDS011;59678;52.476;6.046;2022-07-23T02:48:10;7.27;;;6.00;;
43819;SDS011;59678;52.476;6.046;2022-07-23T02:50:37;8.30;;;5.93;;
43819;SDS011;59678;52.476;6.046;2022-07-23T02:53:02;5.45;;;4.95;;
43819;SDS011;59678;52.476;6.046;2022-07-23T02:55:28;6.40;;;4.63;;
43819;SDS011;59678;52.476;6.046;2022-07-23T02:57:53;9.60;;;6.73;;
43819;SDS011;59678;52.476;6.046;2022-07-23T03:00:18;9.43;;;6.53;;
43819;SDS011;59678;52.476;6.046;2022-07-23T03:02:43;6.60;;;5.53;;
43819;SDS011;59678;52.476;6.046;2022-07-23T03:05:09;9.93;;;6.85;;
43819;SDS011;59678;52.476;6.046;2022-07-23T03:07:34;7.97;;;6.20;;
43819;SDS011;59678;52.476;6.046;2022-07-23T03:09:59;9.03;;;6.27;;
43819;SDS011;59678;52.476;6.046;2022-07-23T03:12:24;5.63;;;4.87;;
43819;SDS011;59678;52.476;6.046;2022-07-23T03:14:49;6.85;;;5.18;;
43819;SDS011;59678;52.476;6.046;2022-07-23T03:17:15;4.83;;;4.30;;
43819;SDS011;59678;52.476;6.046;2022-07-23T03:19:40;10.82;;;7.10;;
43819;SDS011;59678;52.476;6.046;2022-07-23T03:22:06;7.95;;;6.90;;
43819;SDS011;59678;52.476;6.046;2022-07-23T03:24:31;10.10;;;7.88;;
43819;SDS011;59678;52.476;6.046;2022-07-23T03:27:15;10.70;;;7.00;;
43819;SDS011;59678;52.476;6.046;2022-07-23T03:29:40;7.10;;;6.13;;
43819;SDS011;59678;52.476;6.046;2022-07-23T03:32:05;11.33;;;6.37;;
43819;SDS011;59678;52.476;6.046;2022-07-23T03:34:31;7.60;;;6.78;;
43819;SDS011;59678;52.476;6.046;2022-07-23T03:36:56;7.10;;;5.95;;
43819;SDS011;59678;52.476;6.046;2022-07-23T03:39:21;8.53;;;6.97;;
43819;SDS011;59678;52.476;6.046;2022-07-23T03:41:46;5.90;;;5.30;;
43819;SDS011;59678;52.476;6.046;2022-07-23T03:44:11;9.00;;;6.40;;
43819;SDS011;59678;52.476;6.046;2022-07-23T03:46:37;10.93;;;5.75;;
43819;SDS011;59678;52.476;6.046;2022-07-23T03:49:02;9.27;;;6.67;;
43819;SDS011;59678;52.476;6.046;2022-07-23T03:51:27;9.13;;;8.00;;
43819;SDS011;59678;52.476;6.046;2022-07-23T03:53:52;12.02;;;7.68;;
43819;SDS011;59678;52.476;6.046;2022-07-23T03:56:17;10.57;;;9.15;;
43819;SDS011;59678;52.476;6.046;2022-07-23T03:58:43;11.37;;;9.30;;
43819;SDS011;59678;52.476;6.046;2022-07-23T04:01:08;12.97;;;9.53;;
43819;SDS011;59678;52.476;6.046;2022-07-23T04:03:33;13.23;;;11.27;;
43819;SDS011;59678;52.476;6.046;2022-07-23T04:05:58;19.30;;;14.60;;
43819;SDS011;59678;52.476;6.046;2022-07-23T04:08:23;17.45;;;12.23;;
43819;SDS011;59678;52.476;6.046;2022-07-23T04:10:50;14.55;;;12.07;;
43819;SDS011;59678;52.476;6.046;2022-07-23T04:13:15;15.07;;;11.60;;
43819;SDS011;59678;52.476;6.046;2022-07-23T04:15:40;14.33;;;11.10;;
43819;SDS011;59678;52.476;6.046;2022-07-23T04:18:05;13.17;;;9.77;;
43819;SDS011;59678;52.476;6.046;2022-07-23T04:20:31;13.43;;;9.13;;
43819;SDS011;59678;52.476;6.046;2022-07-23T04:22:56;11.87;;;8.77;;
43819;SDS011;59678;52.476;6.046;2022-07-23T04:25:21;8.87;;;7.97;;
43819;SDS011;59678;52.476;6.046;2022-07-23T04:27:46;6.67;;;5.97;;
43819;SDS011;59678;52.476;6.046;2022-07-23T04:30:11;6.97;;;6.20;;
43819;SDS011;59678;52.476;6.046;2022-07-23T04:32:37;8.17;;;6.80;;
43819;SDS011;59678;52.476;6.046;2022-07-23T04:35:02;8.70;;;7.20;;
43819;SDS011;59678;52.476;6.046;2022-07-23T04:37:27;8.93;;;6.65;;
43819;SDS011;59678;52.476;6.046;2022-07-23T04:39:52;9.55;;;6.45;;
43819;SDS011;59678;52.476;6.046;2022-07-23T04:42:17;9.17;;;6.10;;
43819;SDS011;59678;52.476;6.046;2022-07-23T04:44:43;6.40;;;5.23;;
43819;SDS011;59678;52.476;6.046;2022-07-23T04:47:08;8.77;;;5.95;;
43819;SDS011;59678;52.476;6.046;2022-07-23T04:49:33;5.50;;;4.47;;
43819;SDS011;59678;52.476;6.046;2022-07-23T04:51:58;7.50;;;4.70;;
43819;SDS011;59678;52.476;6.046;2022-07-23T04:54:23;4.90;;;3.58;;
43819;SDS011;59678;52.476;6.046;2022-07-23T04:56:49;5.80;;;3.60;;
43819;SDS011;59678;52.476;6.046;2022-07-23T04:59:14;4.55;;;3.38;;
43819;SDS011;59678;52.476;6.046;2022-07-23T05:01:39;5.97;;;3.83;;
43819;SDS011;59678;52.476;6.046;2022-07-23T05:04:04;6.73;;;4.33;;
43819;SDS011;59678;52.476;6.046;2022-07-23T05:06:29;4.57;;;3.83;;
43819;SDS011;59678;52.476;6.046;2022-07-23T05:08:54;7.07;;;4.20;;
43819;SDS011;59678;52.476;6.046;2022-07-23T05:11:20;5.93;;;3.90;;
43819;SDS011;59678;52.476;6.046;2022-07-23T05:13:45;5.28;;;3.65;;
43819;SDS011;59678;52.476;6.046;2022-07-23T05:16:10;4.63;;;3.83;;
43819;SDS011;59678;52.476;6.046;2022-07-23T05:18:36;10.50;;;4.00;;
43819;SDS011;59678;52.476;6.046;2022-07-23T05:21:01;5.13;;;3.93;;
43819;SDS011;59678;52.476;6.046;2022-07-23T05:23:26;5.93;;;4.23;;
43819;SDS011;59678;52.476;6.046;2022-07-23T05:25:51;6.57;;;4.17;;
43819;SDS011;59678;52.476;6.046;2022-07-23T05:28:16;8.00;;;5.17;;
43819;SDS011;59678;52.476;6.046;2022-07-23T05:30:41;5.40;;;4.40;;
43819;SDS011;59678;52.476;6.046;2022-07-23T05:33:07;8.63;;;4.47;;
43819;SDS011;59678;52.476;6.046;2022-07-23T05:35:33;6.45;;;4.82;;
43819;SDS011;59678;52.476;6.046;2022-07-23T05:37:58;6.97;;;5.07;;
43819;SDS011;59678;52.476;6.046;2022-07-23T05:40:23;8.38;;;5.07;;
43819;SDS011;59678;52.476;6.046;2022-07-23T05:42:48;7.57;;;4.18;;
43819;SDS011;59678;52.476;6.046;2022-07-23T05:45:14;6.23;;;4.40;;
43819;SDS011;59678;52.476;6.046;2022-07-23T05:47:43;6.23;;;4.23;;
43819;SDS011;59678;52.476;6.046;2022-07-23T05:50:09;6.22;;;4.88;;
43819;SDS011;59678;52.476;6.046;2022-07-23T05:52:34;6.18;;;4.32;;
43819;SDS011;59678;52.476;6.046;2022-07-23T05:54:59;6.67;;;3.60;;
43819;SDS011;59678;52.476;6.046;2022-07-23T05:57:24;6.55;;;4.70;;
43819;SDS011;59678;52.476;6.046;2022-07-23T05:59:50;5.40;;;3.50;;
43819;SDS011;59678;52.476;6.046;2022-07-23T06:02:15;9.80;;;3.85;;
43819;SDS011;59678;52.476;6.046;2022-07-23T06:04:40;4.53;;;3.15;;
43819;SDS011;59678;52.476;6.046;2022-07-23T06:07:05;7.00;;;3.47;;
43819;SDS011;59678;52.476;6.046;2022-07-23T06:09:30;7.83;;;4.07;;
43819;SDS011;59678;52.476;6.046;2022-07-23T06:11:55;5.10;;;3.60;;
43819;SDS011;59678;52.476;6.046;2022-07-23T06:14:21;4.13;;;3.57;;
43819;SDS011;59678;52.476;6.046;2022-07-23T06:16:46;6.20;;;3.30;;
43819;SDS011;59678;52.476;6.046;2022-07-23T06:19:11;5.43;;;3.53;;
43819;SDS011;59678;52.476;6.046;2022-07-23T06:21:36;5.13;;;3.03;;
43819;SDS011;59678;52.476;6.046;2022-07-23T06:24:02;5.72;;;3.22;;
43819;SDS011;59678;52.476;6.046;2022-07-23T06:26:27;4.47;;;2.70;;
43819;SDS011;59678;52.476;6.046;2022-07-23T06:28:52;7.55;;;3.25;;
43819;SDS011;59678;52.476;6.046;2022-07-23T06:31:17;6.63;;;2.67;;
43819;SDS011;59678;52.476;6.046;2022-07-23T06:33:43;3.97;;;2.43;;
43819;SDS011;59678;52.476;6.046;2022-07-23T06:36:08;4.47;;;2.67;;
43819;SDS011;59678;52.476;6.046;2022-07-23T06:38:33;4.28;;;2.28;;
43819;SDS011;59678;52.476;6.046;2022-07-23T06:40:58;4.40;;;3.07;;
43819;SDS011;59678;52.476;6.046;2022-07-23T06:43:23;4.27;;;3.33;;
43819;SDS011;59678;52.476;6.046;2022-07-23T06:45:49;3.83;;;2.90;;
43819;SDS011;59678;52.476;6.046;2022-07-23T06:48:14;6.60;;;3.10;;
43819;SDS011;59678;52.476;6.046;2022-07-23T06:50:39;6.33;;;2.80;;
43819;SDS011;59678;52.476;6.046;2022-07-23T06:53:04;4.10;;;2.90;;
43819;SDS011;59678;52.476;6.046;2022-07-23T06:55:29;5.40;;;2.67;;
43819;SDS011;59678;52.476;6.046;2022-07-23T06:57:54;2.15;;;1.90;;
43819;SDS011;59678;52.476;6.046;2022-07-23T07:00:20;6.33;;;2.77;;
43819;SDS011;59678;52.476;6.046;2022-07-23T07:02:45;3.93;;;2.57;;
43819;SDS011;59678;52.476;6.046;2022-07-23T07:05:10;3.47;;;2.13;;
43819;SDS011;59678;52.476;6.046;2022-07-23T07:07:35;3.20;;;2.10;;
43819;SDS011;59678;52.476;6.046;2022-07-23T07:10:01;4.23;;;2.30;;
43819;SDS011;59678;52.476;6.046;2022-07-23T07:12:26;2.42;;;1.67;;
43819;SDS011;59678;52.476;6.046;2022-07-23T07:14:52;2.60;;;1.50;;
43819;SDS011;59678;52.476;6.046;2022-07-23T07:17:18;4.90;;;1.80;;
43819;SDS011;59678;52.476;6.046;2022-07-23T07:19:43;4.53;;;1.87;;
43819;SDS011;59678;52.476;6.046;2022-07-23T07:22:08;3.07;;;1.70;;
43819;SDS011;59678;52.476;6.046;2022-07-23T07:24:34;3.93;;;1.80;;
43819;SDS011;59678;52.476;6.046;2022-07-23T07:26:59;3.27;;;1.80;;
43819;SDS011;59678;52.476;6.046;2022-07-23T07:29:24;5.78;;;1.73;;
43819;SDS011;59678;52.476;6.046;2022-07-23T07:31:49;4.63;;;2.10;;
43819;SDS011;59678;52.476;6.046;2022-07-23T07:34:14;4.77;;;2.00;;
43819;SDS011;59678;52.476;6.046;2022-07-23T07:36:39;3.17;;;1.90;;
43819;SDS011;59678;52.476;6.046;2022-07-23T07:39:05;5.33;;;2.33;;
43819;SDS011;59678;52.476;6.046;2022-07-23T07:41:31;3.97;;;2.20;;
43819;SDS011;59678;52.476;6.046;2022-07-23T07:43:56;3.57;;;2.23;;
43819;SDS011;59678;52.476;6.046;2022-07-23T07:46:22;5.53;;;2.10;;
43819;SDS011;59678;52.476;6.046;2022-07-23T07:48:49;3.40;;;2.13;;
43819;SDS011;59678;52.476;6.046;2022-07-23T07:51:14;4.27;;;2.10;;
43819;SDS011;59678;52.476;6.046;2022-07-23T07:53:39;4.17;;;2.07;;
43819;SDS011;59678;52.476;6.046;2022-07-23T07:56:04;3.10;;;1.90;;
43819;SDS011;59678;52.476;6.046;2022-07-23T07:58:29;3.03;;;1.83;;
43819;SDS011;59678;52.476;6.046;2022-07-23T08:00:55;3.37;;;2.20;;
43819;SDS011;59678;52.476;6.046;2022-07-23T08:03:20;3.70;;;2.27;;
43819;SDS011;59678;52.476;6.046;2022-07-23T08:05:45;5.53;;;2.47;;
43819;SDS011;59678;52.476;6.046;2022-07-23T08:08:10;4.63;;;2.50;;
43819;SDS011;59678;52.476;6.046;2022-07-23T08:10:39;8.45;;;2.78;;
43819;SDS011;59678;52.476;6.046;2022-07-23T08:13:05;5.22;;;2.40;;
43819;SDS011;59678;52.476;6.046;2022-07-23T08:15:30;5.73;;;2.93;;
43819;SDS011;59678;52.476;6.046;2022-07-23T08:17:56;4.70;;;2.50;;
43819;SDS011;59678;52.476;6.046;2022-07-23T08:20:22;4.30;;;2.35;;
43819;SDS011;59678;52.476;6.046;2022-07-23T08:22:57;3.15;;;2.33;;
43819;SDS011;59678;52.476;6.046;2022-07-23T08:25:24;5.80;;;2.78;;
43819;SDS011;59678;52.476;6.046;2022-07-23T08:27:50;4.43;;;2.53;;
43819;SDS011;59678;52.476;6.046;2022-07-23T08:30:15;4.30;;;3.20;;
43819;SDS011;59678;52.476;6.046;2022-07-23T08:35:16;3.40;;;2.38;;
43819;SDS011;59678;52.476;6.046;2022-07-23T08:37:41;6.07;;;2.67;;
43819;SDS011;59678;52.476;6.046;2022-07-23T08:40:07;4.47;;;2.50;;
43819;SDS011;59678;52.476;6.046;2022-07-23T08:42:32;6.95;;;2.90;;
43819;SDS011;59678;52.476;6.046;2022-07-23T08:45:00;5.55;;;2.80;;
43819;SDS011;59678;52.476;6.046;2022-07-23T08:47:25;4.75;;;2.50;;
43819;SDS011;59678;52.476;6.046;2022-07-23T08:49:50;4.83;;;2.57;;
43819;SDS011;59678;52.476;6.046;2022-07-23T08:52:16;3.20;;;1.93;;
43819;SDS011;59678;52.476;6.046;2022-07-23T08:54:41;4.93;;;2.77;;
43819;SDS011;59678;52.476;6.046;2022-07-23T08:57:06;2.55;;;1.98;;
43819;SDS011;59678;52.476;6.046;2022-07-23T08:59:31;3.87;;;2.53;;
43819;SDS011;59678;52.476;6.046;2022-07-23T09:01:57;8.85;;;2.67;;
43819;SDS011;59678;52.476;6.046;2022-07-23T09:04:22;3.13;;;1.90;;
43819;SDS011;59678;52.476;6.046;2022-07-23T09:06:47;3.33;;;1.75;;
43819;SDS011;59678;52.476;6.046;2022-07-23T09:09:19;4.83;;;1.93;;
43819;SDS011;59678;52.476;6.046;2022-07-23T09:11:48;5.95;;;2.20;;
43819;SDS011;59678;52.476;6.046;2022-07-23T09:14:13;6.75;;;2.13;;
43819;SDS011;59678;52.476;6.046;2022-07-23T09:16:38;6.53;;;2.38;;
43819;SDS011;59678;52.476;6.046;2022-07-23T09:19:05;2.63;;;1.70;;
43819;SDS011;59678;52.476;6.046;2022-07-23T09:26:22;4.03;;;1.58;;
43819;SDS011;59678;52.476;6.046;2022-07-23T09:31:41;5.32;;;2.10;;
43819;SDS011;59678;52.476;6.046;2022-07-23T09:36:38;7.45;;;2.17;;
43819;SDS011;59678;52.476;6.046;2022-07-23T09:39:04;5.15;;;2.35;;
43819;SDS011;59678;52.476;6.046;2022-07-23T09:41:40;3.65;;;1.77;;
43819;SDS011;59678;52.476;6.046;2022-07-23T09:44:09;4.28;;;2.10;;
43819;SDS011;59678;52.476;6.046;2022-07-23T09:46:35;2.92;;;1.85;;
43819;SDS011;59678;52.476;6.046;2022-07-23T09:49:00;4.75;;;2.05;;
43819;SDS011;59678;52.476;6.046;2022-07-23T09:51:40;3.50;;;2.17;;
43819;SDS011;59678;52.476;6.046;2022-07-23T09:54:08;5.93;;;2.30;;
43819;SDS011;59678;52.476;6.046;2022-07-23T09:56:44;7.07;;;2.08;;
43819;SDS011;59678;52.476;6.046;2022-07-23T09:59:10;4.63;;;2.03;;
43819;SDS011;59678;52.476;6.046;2022-07-23T10:01:36;3.75;;;1.88;;
43819;SDS011;59678;52.476;6.046;2022-07-23T10:04:02;4.40;;;2.30;;
43819;SDS011;59678;52.476;6.046;2022-07-23T10:06:27;4.82;;;2.67;;
43819;SDS011;59678;52.476;6.046;2022-07-23T10:08:53;6.28;;;2.70;;
43819;SDS011;59678;52.476;6.046;2022-07-23T10:11:20;2.83;;;2.30;;
43819;SDS011;59678;52.476;6.046;2022-07-23T10:13:45;3.60;;;2.00;;
43819;SDS011;59678;52.476;6.046;2022-07-23T10:16:20;1.90;;;1.50;;
43819;SDS011;59678;52.476;6.046;2022-07-23T10:18:46;4.05;;;2.30;;
43819;SDS011;59678;52.476;6.046;2022-07-23T10:21:12;3.15;;;2.15;;
43819;SDS011;59678;52.476;6.046;2022-07-23T10:23:50;5.18;;;2.55;;
43819;SDS011;59678;52.476;6.046;2022-07-23T10:26:17;6.88;;;2.90;;
43819;SDS011;59678;52.476;6.046;2022-07-23T10:28:56;6.70;;;3.25;;
43819;SDS011;59678;52.476;6.046;2022-07-23T10:34:11;5.55;;;2.17;;
43819;SDS011;59678;52.476;6.046;2022-07-23T10:36:58;5.00;;;3.20;;
43819;SDS011;59678;52.476;6.046;2022-07-23T10:39:32;4.03;;;2.30;;
43819;SDS011;59678;52.476;6.046;2022-07-23T10:42:13;6.13;;;3.10;;
43819;SDS011;59678;52.476;6.046;2022-07-23T10:44:40;4.43;;;2.40;;
43819;SDS011;59678;52.476;6.046;2022-07-23T10:47:06;6.25;;;2.20;;
43819;SDS011;59678;52.476;6.046;2022-07-23T10:57:53;3.47;;;2.08;;
43819;SDS011;59678;52.476;6.046;2022-07-23T11:00:25;4.73;;;2.80;;
43819;SDS011;59678;52.476;6.046;2022-07-23T11:02:52;3.50;;;2.30;;
43819;SDS011;59678;52.476;6.046;2022-07-23T11:05:18;6.53;;;2.35;;
43819;SDS011;59678;52.476;6.046;2022-07-23T11:10:38;5.30;;;3.20;;
43819;SDS011;59678;52.476;6.046;2022-07-23T11:24:07;4.63;;;2.47;;
43819;SDS011;59678;52.476;6.046;2022-07-23T11:26:54;4.28;;;3.10;;
43819;SDS011;59678;52.476;6.046;2022-07-23T11:34:30;8.82;;;3.05;;
43819;SDS011;59678;52.476;6.046;2022-07-23T11:36:56;6.38;;;2.83;;
43819;SDS011;59678;52.476;6.046;2022-07-23T11:39:21;7.80;;;3.10;;
43819;SDS011;59678;52.476;6.046;2022-07-23T11:41:49;3.00;;;1.85;;
43819;SDS011;59678;52.476;6.046;2022-07-23T11:44:27;3.67;;;2.57;;
43819;SDS011;59678;52.476;6.046;2022-07-23T11:46:56;3.15;;;2.33;;
43819;SDS011;59678;52.476;6.046;2022-07-23T11:49:22;3.58;;;2.30;;
43819;SDS011;59678;52.476;6.046;2022-07-23T11:51:47;6.17;;;2.43;;
43819;SDS011;59678;52.476;6.046;2022-07-23T11:54:12;3.37;;;2.10;;
43819;SDS011;59678;52.476;6.046;2022-07-23T11:56:37;4.47;;;2.60;;
43819;SDS011;59678;52.476;6.046;2022-07-23T11:59:02;4.53;;;2.37;;
43819;SDS011;59678;52.476;6.046;2022-07-23T12:01:28;4.47;;;2.45;;
43819;SDS011;59678;52.476;6.046;2022-07-23T12:03:53;4.07;;;2.13;;
43819;SDS011;59678;52.476;6.046;2022-07-23T12:06:18;2.80;;;2.00;;
43819;SDS011;59678;52.476;6.046;2022-07-23T12:08:43;3.33;;;2.47;;
43819;SDS011;59678;52.476;6.046;2022-07-23T12:11:08;2.80;;;1.70;;
43819;SDS011;59678;52.476;6.046;2022-07-23T12:13:36;3.45;;;2.45;;
43819;SDS011;59678;52.476;6.046;2022-07-23T12:16:01;6.17;;;2.10;;
43819;SDS011;59678;52.476;6.046;2022-07-23T12:18:27;3.55;;;2.03;;
43819;SDS011;59678;52.476;6.046;2022-07-23T12:20:54;2.88;;;2.05;;
43819;SDS011;59678;52.476;6.046;2022-07-23T12:23:22;3.10;;;2.10;;
43819;SDS011;59678;52.476;6.046;2022-07-23T12:25:48;3.83;;;1.98;;
43819;SDS011;59678;52.476;6.046;2022-07-23T12:28:14;3.60;;;2.00;;
43819;SDS011;59678;52.476;6.046;2022-07-23T12:33:05;2.47;;;1.50;;
43819;SDS011;59678;52.476;6.046;2022-07-23T12:35:38;6.57;;;1.75;;
43819;SDS011;59678;52.476;6.046;2022-07-23T12:38:05;2.70;;;2.00;;
43819;SDS011;59678;52.476;6.046;2022-07-23T12:40:32;3.10;;;1.92;;
43819;SDS011;59678;52.476;6.046;2022-07-23T12:43:02;3.22;;;1.67;;
43819;SDS011;59678;52.476;6.046;2022-07-23T12:45:28;2.53;;;1.50;;
43819;SDS011;59678;52.476;6.046;2022-07-23T12:48:05;2.03;;;1.20;;
43819;SDS011;59678;52.476;6.046;2022-07-23T12:53:04;2.72;;;1.83;;
43819;SDS011;59678;52.476;6.046;2022-07-23T12:55:29;3.42;;;2.05;;
43819;SDS011;59678;52.476;6.046;2022-07-23T12:58:02;1.93;;;1.33;;
43819;SDS011;59678;52.476;6.046;2022-07-23T13:00:27;1.98;;;1.40;;
43819;SDS011;59678;52.476;6.046;2022-07-23T13:02:52;3.25;;;1.88;;
43819;SDS011;59678;52.476;6.046;2022-07-23T13:05:17;3.90;;;1.40;;
43819;SDS011;59678;52.476;6.046;2022-07-23T13:07:42;2.57;;;1.40;;
43819;SDS011;59678;52.476;6.046;2022-07-23T13:10:08;5.43;;;1.90;;
43819;SDS011;59678;52.476;6.046;2022-07-23T13:12:33;3.90;;;1.83;;
43819;SDS011;59678;52.476;6.046;2022-07-23T13:14:58;2.57;;;1.50;;
43819;SDS011;59678;52.476;6.046;2022-07-23T13:17:23;2.30;;;1.40;;
43819;SDS011;59678;52.476;6.046;2022-07-23T13:19:48;2.57;;;1.80;;
43819;SDS011;59678;52.476;6.046;2022-07-23T13:22:13;2.53;;;1.80;;
43819;SDS011;59678;52.476;6.046;2022-07-23T13:24:39;5.07;;;1.87;;
43819;SDS011;59678;52.476;6.046;2022-07-23T13:27:04;4.73;;;1.83;;
43819;SDS011;59678;52.476;6.046;2022-07-23T13:29:30;7.47;;;2.38;;
43819;SDS011;59678;52.476;6.046;2022-07-23T13:31:56;5.30;;;2.38;;
43819;SDS011;59678;52.476;6.046;2022-07-23T13:34:21;1.97;;;1.37;;
43819;SDS011;59678;52.476;6.046;2022-07-23T13:36:46;2.63;;;1.97;;
43819;SDS011;59678;52.476;6.046;2022-07-23T13:39:11;4.13;;;1.60;;
43819;SDS011;59678;52.476;6.046;2022-07-23T13:41:37;1.90;;;1.63;;
43819;SDS011;59678;52.476;6.046;2022-07-23T13:44:03;1.73;;;1.30;;
43819;SDS011;59678;52.476;6.046;2022-07-23T13:46:28;3.20;;;1.80;;
43819;SDS011;59678;52.476;6.046;2022-07-23T13:48:53;2.13;;;1.63;;
43819;SDS011;59678;52.476;6.046;2022-07-23T13:51:18;4.03;;;1.70;;
43819;SDS011;59678;52.476;6.046;2022-07-23T13:53:43;2.40;;;1.67;;
43819;SDS011;59678;52.476;6.046;2022-07-23T13:56:10;2.75;;;2.00;;
43819;SDS011;59678;52.476;6.046;2022-07-23T13:58:35;3.63;;;2.28;;
43819;SDS011;59678;52.476;6.046;2022-07-23T14:01:00;3.13;;;2.40;;
43819;SDS011;59678;52.476;6.046;2022-07-23T14:03:26;2.83;;;2.10;;
43819;SDS011;59678;52.476;6.046;2022-07-23T14:05:51;1.77;;;1.37;;
43819;SDS011;59678;52.476;6.046;2022-07-23T14:08:17;1.98;;;1.77;;
43819;SDS011;59678;52.476;6.046;2022-07-23T14:10:42;3.13;;;1.97;;
43819;SDS011;59678;52.476;6.046;2022-07-23T14:13:07;2.78;;;1.65;;
43819;SDS011;59678;52.476;6.046;2022-07-23T14:15:32;5.20;;;2.53;;
43819;SDS011;59678;52.476;6.046;2022-07-23T14:17:58;3.78;;;2.13;;
43819;SDS011;59678;52.476;6.046;2022-07-23T14:20:23;5.15;;;2.15;;
43819;SDS011;59678;52.476;6.046;2022-07-23T14:22:49;3.83;;;1.90;;
43819;SDS011;59678;52.476;6.046;2022-07-23T14:25:14;3.50;;;1.75;;
43819;SDS011;59678;52.476;6.046;2022-07-23T14:27:40;3.55;;;1.92;;
43819;SDS011;59678;52.476;6.046;2022-07-23T14:30:05;2.00;;;1.50;;
43819;SDS011;59678;52.476;6.046;2022-07-23T14:32:31;2.72;;;1.30;;
43819;SDS011;59678;52.476;6.046;2022-07-23T14:34:56;2.07;;;1.47;;
43819;SDS011;59678;52.476;6.046;2022-07-23T14:37:21;3.47;;;1.80;;
43819;SDS011;59678;52.476;6.046;2022-07-23T14:39:47;4.57;;;1.90;;
43819;SDS011;59678;52.476;6.046;2022-07-23T14:42:12;2.13;;;1.33;;
43819;SDS011;59678;52.476;6.046;2022-07-23T14:44:38;2.50;;;1.80;;
43819;SDS011;59678;52.476;6.046;2022-07-23T14:47:03;4.28;;;2.10;;
43819;SDS011;59678;52.476;6.046;2022-07-23T14:49:29;2.53;;;1.58;;
43819;SDS011;59678;52.476;6.046;2022-07-23T14:51:54;1.85;;;1.58;;
43819;SDS011;59678;52.476;6.046;2022-07-23T14:54:20;2.80;;;1.67;;
43819;SDS011;59678;52.476;6.046;2022-07-23T14:56:45;2.37;;;1.70;;
43819;SDS011;59678;52.476;6.046;2022-07-23T14:59:10;2.30;;;1.60;;
43819;SDS011;59678;52.476;6.046;2022-07-23T15:01:36;5.50;;;2.03;;
43819;SDS011;59678;52.476;6.046;2022-07-23T15:04:01;2.93;;;1.80;;
43819;SDS011;59678;52.476;6.046;2022-07-23T15:06:26;1.92;;;1.70;;
43819;SDS011;59678;52.476;6.046;2022-07-23T15:08:52;3.08;;;2.08;;
43819;SDS011;59678;52.476;6.046;2022-07-23T15:11:17;2.63;;;1.95;;
43819;SDS011;59678;52.476;6.046;2022-07-23T15:13:42;2.50;;;1.77;;
43819;SDS011;59678;52.476;6.046;2022-07-23T15:16:08;3.28;;;2.03;;
43819;SDS011;59678;52.476;6.046;2022-07-23T15:18:33;3.38;;;2.35;;
43819;SDS011;59678;52.476;6.046;2022-07-23T15:20:59;3.70;;;2.28;;
43819;SDS011;59678;52.476;6.046;2022-07-23T15:23:25;3.90;;;3.25;;
43819;SDS011;59678;52.476;6.046;2022-07-23T15:25:51;4.13;;;3.20;;